createdAt,value
2022-12-25T00:01:59.172Z,37.00
2022-12-25T00:04:28.395Z,38.60
2022-12-25T00:06:56.163Z,35.70
2022-12-25T00:09:24.127Z,36.27
2022-12-25T00:11:51.572Z,34.37
2022-12-25T00:14:19.079Z,32.47
2022-12-25T00:16:46.542Z,29.65
2022-12-25T00:19:13.976Z,33.63
2022-12-25T00:21:41.397Z,29.25
2022-12-25T00:24:10.725Z,30.77
2022-12-25T00:26:42.098Z,28.63
2022-12-25T00:29:11.825Z,33.75
2022-12-25T00:31:39.516Z,38.40
2022-12-25T00:34:06.977Z,32.60
2022-12-25T00:36:41.143Z,36.58
2022-12-25T00:39:09.418Z,30.48
2022-12-25T00:41:56.727Z,37.42
2022-12-25T00:44:24.212Z,34.67
2022-12-25T00:46:52.754Z,37.67
2022-12-25T00:49:22.640Z,39.13
2022-12-25T00:51:51.266Z,40.13
2022-12-25T00:54:19.147Z,45.15
2022-12-25T00:56:46.817Z,45.30
2022-12-25T00:59:14.415Z,41.67
2022-12-25T01:01:41.916Z,47.28
2022-12-25T01:04:09.818Z,46.03
2022-12-25T01:06:37.237Z,54.38
2022-12-25T01:09:24.714Z,53.65
2022-12-25T01:11:52.253Z,50.58
2022-12-25T01:14:19.777Z,49.95
2022-12-25T01:16:47.339Z,56.20
2022-12-25T01:19:14.846Z,51.28
2022-12-25T01:21:42.737Z,48.97
2022-12-25T01:24:10.132Z,56.50
2022-12-25T01:26:37.662Z,57.22
2022-12-25T01:29:05.055Z,44.70
2022-12-25T01:31:32.662Z,48.78
2022-12-25T01:34:00.148Z,61.92
2022-12-25T01:36:27.722Z,49.45
2022-12-25T01:38:58.673Z,51.03
2022-12-25T01:41:26.494Z,59.72
2022-12-25T01:44:04.283Z,59.03
2022-12-25T01:46:32.172Z,56.00
2022-12-25T01:49:01.581Z,54.95
2022-12-25T01:51:31.255Z,59.65
2022-12-25T01:54:00.687Z,54.08
2022-12-25T01:56:28.857Z,61.30
2022-12-25T01:58:57.439Z,58.03
2022-12-25T02:01:24.988Z,55.08
2022-12-25T02:03:56.272Z,56.58
2022-12-25T02:06:23.826Z,58.70
2022-12-25T02:08:51.279Z,60.75
2022-12-25T02:11:38.616Z,52.00
2022-12-25T02:14:06.025Z,52.42
2022-12-25T02:16:35.627Z,54.55
2022-12-25T02:19:42.784Z,54.88
2022-12-25T02:22:30.058Z,49.55
2022-12-25T02:25:17.331Z,55.90
2022-12-25T02:28:04.616Z,56.58
2022-12-25T02:30:36.676Z,60.08
2022-12-25T02:33:28.187Z,58.72
2022-12-25T02:35:58.109Z,59.00
2022-12-25T02:38:28.986Z,65.65
2022-12-25T02:40:58.428Z,67.07
2022-12-25T02:43:48.763Z,86.85
2022-12-25T02:46:38.353Z,79.70
2022-12-25T02:49:29.514Z,73.43
2022-12-25T02:52:19.433Z,85.85
2022-12-25T02:55:08.898Z,73.72
2022-12-25T02:57:58.639Z,88.15
2022-12-25T03:00:46.596Z,88.70
2022-12-25T03:03:35.617Z,109.30
2022-12-25T03:06:24.616Z,87.32
2022-12-25T03:08:53.987Z,84.88
2022-12-25T03:11:37.355Z,104.90
2022-12-25T03:14:26.187Z,82.40
2022-12-25T03:16:56.038Z,84.65
2022-12-25T03:19:46.025Z,92.53
2022-12-25T03:22:36.154Z,84.07
2022-12-25T03:25:23.672Z,71.15
2022-12-25T03:27:52.800Z,76.15
2022-12-25T03:30:40.315Z,102.93
2022-12-25T03:33:43.132Z,106.13
2022-12-25T03:36:11.153Z,137.55
2022-12-25T03:39:18.310Z,111.05
2022-12-25T03:42:10.968Z,144.82
2022-12-25T03:45:18.127Z,138.48
2022-12-25T03:48:07.583Z,112.97
2022-12-25T03:50:57.228Z,117.38
2022-12-25T03:53:48.126Z,100.40
2022-12-25T03:56:37.456Z,163.93
2022-12-25T03:59:24.858Z,128.55
2022-12-25T04:02:12.744Z,103.03
2022-12-25T04:05:00.681Z,120.45
2022-12-25T04:07:47.976Z,139.95
2022-12-25T04:10:35.315Z,100.80
2022-12-25T04:13:22.575Z,152.27
2022-12-25T04:16:10.003Z,195.88
2022-12-25T04:18:57.332Z,124.13
2022-12-25T04:21:44.977Z,169.80
2022-12-25T04:24:32.380Z,182.13
2022-12-25T04:27:19.667Z,134.98
2022-12-25T04:30:07.022Z,166.90
2022-12-25T04:32:54.430Z,161.07
2022-12-25T04:35:41.677Z,198.20
2022-12-25T04:38:09.130Z,114.40
2022-12-25T04:40:36.864Z,133.77
2022-12-25T04:43:05.923Z,112.00
2022-12-25T04:45:33.416Z,183.05
2022-12-25T04:48:01.284Z,83.43
2022-12-25T04:50:28.766Z,126.85
2022-12-25T04:52:56.403Z,99.95
2022-12-25T04:55:23.871Z,125.00
2022-12-25T04:57:51.299Z,115.35
2022-12-25T05:00:19.107Z,86.32
2022-12-25T05:02:46.732Z,76.28
2022-12-25T05:05:14.357Z,123.25
2022-12-25T05:07:41.740Z,96.75
2022-12-25T05:10:09.600Z,120.40
2022-12-25T05:12:37.005Z,119.22
2022-12-25T05:15:04.579Z,86.35
2022-12-25T05:17:31.994Z,163.02
2022-12-25T05:19:59.364Z,76.78
2022-12-25T05:22:26.836Z,123.47
2022-12-25T05:24:54.264Z,144.63
2022-12-25T05:27:21.763Z,109.75
2022-12-25T05:29:49.243Z,84.28
2022-12-25T05:32:16.695Z,224.88
2022-12-25T05:34:44.064Z,158.43
2022-12-25T05:37:11.814Z,212.63
2022-12-25T05:39:39.375Z,182.13
2022-12-25T05:42:06.851Z,125.82
2022-12-25T05:44:34.189Z,147.27
2022-12-25T05:47:01.926Z,118.03
2022-12-25T05:49:29.305Z,214.63
2022-12-25T05:51:56.836Z,102.70
2022-12-25T05:54:24.376Z,101.03
2022-12-25T05:56:51.860Z,105.93
2022-12-25T05:59:19.307Z,108.32
2022-12-25T06:01:46.896Z,105.25
2022-12-25T06:04:14.467Z,92.38
2022-12-25T06:06:42.383Z,174.00
2022-12-25T06:09:10.048Z,215.77
2022-12-25T06:11:37.567Z,78.10
2022-12-25T06:14:04.961Z,87.78
2022-12-25T06:16:37.996Z,105.00
2022-12-25T06:19:06.324Z,74.60
2022-12-25T06:21:33.900Z,68.05
2022-12-25T06:24:03.899Z,62.88
2022-12-25T06:26:31.450Z,91.95
2022-12-25T06:28:58.818Z,82.65
2022-12-25T06:31:26.255Z,139.45
2022-12-25T06:33:54.096Z,158.15
2022-12-25T06:36:23.029Z,70.68
2022-12-25T06:38:51.054Z,114.25
2022-12-25T06:41:19.962Z,90.07
2022-12-25T06:43:49.314Z,133.95
2022-12-25T06:46:16.868Z,154.60
2022-12-25T06:48:49.378Z,131.20
2022-12-25T06:51:18.344Z,131.45
2022-12-25T06:53:47.545Z,161.27
2022-12-25T06:56:16.590Z,126.07
2022-12-25T06:58:46.604Z,121.00
2022-12-25T07:01:17.996Z,124.85
2022-12-25T07:03:46.553Z,129.05
2022-12-25T07:06:14.069Z,97.35
2022-12-25T07:08:41.725Z,91.03
2022-12-25T07:11:09.160Z,97.60
2022-12-25T07:13:36.651Z,122.20
2022-12-25T07:16:04.989Z,111.35
2022-12-25T07:18:33.220Z,112.72
2022-12-25T07:21:05.999Z,117.65
2022-12-25T07:23:33.489Z,210.07
2022-12-25T07:26:01.827Z,126.68
2022-12-25T07:28:29.623Z,133.27
2022-12-25T07:31:01.487Z,164.00
2022-12-25T07:33:28.946Z,210.25
2022-12-25T07:35:56.423Z,231.95
2022-12-25T07:38:23.843Z,177.65
2022-12-25T07:40:51.286Z,123.13
2022-12-25T07:43:18.775Z,142.70
2022-12-25T07:45:46.254Z,108.38
2022-12-25T07:48:16.913Z,95.38
2022-12-25T07:50:44.618Z,68.97
2022-12-25T07:53:12.141Z,134.55
2022-12-25T07:55:39.501Z,110.60
2022-12-25T07:58:07.337Z,84.10
2022-12-25T08:00:34.894Z,61.05
2022-12-25T08:03:02.599Z,64.57
2022-12-25T08:05:30.344Z,104.30
2022-12-25T08:07:58.332Z,94.57
2022-12-25T08:10:25.976Z,79.03
2022-12-25T08:12:56.436Z,67.80
2022-12-25T08:15:23.837Z,103.00
2022-12-25T08:17:51.265Z,96.80
2022-12-25T08:20:18.762Z,89.87
2022-12-25T08:22:46.216Z,81.13
2022-12-25T08:25:13.698Z,87.10
2022-12-25T08:27:41.321Z,83.53
2022-12-25T08:30:09.361Z,83.10
2022-12-25T08:32:36.827Z,58.17
2022-12-25T08:35:04.301Z,62.83
2022-12-25T08:37:31.910Z,54.20
2022-12-25T08:39:59.307Z,59.97
2022-12-25T08:42:26.762Z,60.73
2022-12-25T08:44:54.151Z,47.73
2022-12-25T08:47:21.647Z,53.37
2022-12-25T08:49:49.068Z,56.57
2022-12-25T08:52:16.674Z,55.37
2022-12-25T08:54:44.253Z,56.53
2022-12-25T08:57:11.658Z,55.97
2022-12-25T08:59:39.413Z,60.10
2022-12-25T09:02:07.406Z,61.20
2022-12-25T09:04:35.579Z,60.40
2022-12-25T09:07:03.119Z,57.63
2022-12-25T09:09:30.615Z,55.93
2022-12-25T09:11:58.135Z,55.80
2022-12-25T09:14:25.489Z,53.33
2022-12-25T09:16:53.097Z,47.10
2022-12-25T09:19:22.172Z,49.63
2022-12-25T09:21:49.640Z,49.37
2022-12-25T09:24:17.246Z,52.93
2022-12-25T09:26:44.707Z,52.77
2022-12-25T09:29:12.180Z,53.83
2022-12-25T09:31:39.693Z,56.10
2022-12-25T09:34:07.308Z,63.23
2022-12-25T09:36:35.605Z,58.93
2022-12-25T09:39:03.072Z,62.67
2022-12-25T09:41:50.405Z,67.67
2022-12-25T09:44:20.520Z,60.43
2022-12-25T09:46:52.157Z,61.97
2022-12-25T09:49:22.423Z,62.53
2022-12-25T09:51:51.249Z,60.83
2022-12-25T09:54:21.843Z,59.37
2022-12-25T09:56:49.351Z,65.20
2022-12-25T09:59:19.429Z,68.63
2022-12-25T10:02:06.896Z,69.57
2022-12-25T10:04:54.249Z,66.97
2022-12-25T10:07:41.485Z,66.40
2022-12-25T10:10:28.785Z,67.83
2022-12-25T10:13:03.477Z,66.07
2022-12-25T10:15:51.489Z,63.72
2022-12-25T10:18:38.947Z,55.97
2022-12-25T10:21:13.216Z,57.13
2022-12-25T10:23:44.781Z,46.20
2022-12-25T10:26:28.025Z,54.87
2022-12-25T10:29:15.289Z,45.30
2022-12-25T10:31:45.485Z,49.53
2022-12-25T10:34:13.785Z,53.50
2022-12-25T10:36:42.003Z,56.07
2022-12-25T10:39:12.308Z,51.07
2022-12-25T10:41:59.991Z,54.83
2022-12-25T10:44:27.877Z,55.03
2022-12-25T10:46:56.846Z,62.50
2022-12-25T10:49:26.539Z,54.27
2022-12-25T10:51:54.156Z,53.30
2022-12-25T10:54:24.526Z,48.83
2022-12-25T10:57:00.648Z,61.80
2022-12-25T10:59:29.291Z,50.67
2022-12-25T11:01:57.905Z,63.47
2022-12-25T11:04:28.932Z,65.53
2022-12-25T11:06:58.390Z,65.27
2022-12-25T11:09:26.978Z,84.37
2022-12-25T11:11:54.521Z,75.73
2022-12-25T11:14:24.157Z,74.83
2022-12-25T11:16:51.843Z,64.80
2022-12-25T11:19:28.643Z,52.70
2022-12-25T11:21:58.347Z,58.80
2022-12-25T11:24:28.671Z,54.43
2022-12-25T11:26:59.310Z,55.27
2022-12-25T11:29:36.360Z,67.33
2022-12-25T11:32:05.037Z,60.13
2022-12-25T11:34:34.673Z,58.03
2022-12-25T11:37:03.899Z,56.43
2022-12-25T11:39:51.497Z,58.10
2022-12-25T11:42:35.413Z,66.43
2022-12-25T11:45:22.746Z,47.93
2022-12-25T11:48:10.030Z,50.10
2022-12-25T11:50:46.728Z,44.87
2022-12-25T11:53:20.152Z,43.67
2022-12-25T11:55:55.045Z,44.63
2022-12-25T11:58:42.598Z,48.08
2022-12-25T12:01:19.313Z,41.13
2022-12-25T12:03:47.085Z,49.50
2022-12-25T12:06:34.743Z,54.20
2022-12-25T12:09:06.393Z,51.10
2022-12-25T12:11:38.042Z,48.33
2022-12-25T12:14:13.285Z,51.53
2022-12-25T12:16:40.953Z,54.78
2022-12-25T12:19:12.835Z,54.57
2022-12-25T12:21:40.622Z,57.87
2022-12-25T12:24:28.035Z,67.03
2022-12-25T12:27:15.374Z,67.37
2022-12-25T12:29:45.375Z,66.17
2022-12-25T12:32:34.042Z,66.73
2022-12-25T12:35:06.636Z,63.80
2022-12-25T12:37:36.394Z,72.87
2022-12-25T12:40:04.877Z,85.77
2022-12-25T12:42:36.109Z,88.97
2022-12-25T12:45:16.091Z,71.23
2022-12-25T12:47:46.896Z,84.23
2022-12-25T12:50:34.352Z,92.10
2022-12-25T12:53:14.727Z,84.03
2022-12-25T12:55:42.245Z,91.63
2022-12-25T12:58:13.909Z,90.10
2022-12-25T13:01:01.357Z,92.30
2022-12-25T13:03:48.753Z,95.93
2022-12-25T13:06:20.171Z,113.97
2022-12-25T13:08:56.337Z,95.97
2022-12-25T13:11:25.011Z,108.73
2022-12-25T13:13:54.892Z,95.83
2022-12-25T13:16:26.809Z,110.97
2022-12-25T13:18:55.540Z,105.63
2022-12-25T13:21:24.581Z,108.30
2022-12-25T13:23:57.139Z,107.47
2022-12-25T13:26:24.946Z,100.33
2022-12-25T13:28:56.200Z,89.40
2022-12-25T13:31:25.753Z,100.93
2022-12-25T13:34:02.843Z,115.13
2022-12-25T13:36:31.544Z,115.57
2022-12-25T13:39:00.497Z,125.83
2022-12-25T13:42:07.924Z,128.77
2022-12-25T13:44:55.864Z,116.13
2022-12-25T13:47:26.502Z,114.33
2022-12-25T13:50:01.468Z,116.43
2022-12-25T13:52:34.842Z,134.33
2022-12-25T13:55:03.620Z,118.97
2022-12-25T13:57:34.234Z,125.17
2022-12-25T14:00:02.351Z,133.53
2022-12-25T14:02:34.759Z,126.67
2022-12-25T14:05:03.104Z,109.27
2022-12-25T14:07:33.663Z,132.30
2022-12-25T14:10:03.342Z,201.73
2022-12-25T14:12:32.153Z,122.57
2022-12-25T14:15:00.254Z,120.40
2022-12-25T14:17:28.178Z,161.47
2022-12-25T14:20:02.384Z,176.23
2022-12-25T14:22:38.311Z,125.83
2022-12-25T14:25:14.415Z,139.53
2022-12-25T14:27:42.074Z,124.33
2022-12-25T14:30:14.028Z,147.27
2022-12-25T14:32:44.341Z,190.07
2022-12-25T14:35:19.710Z,111.50
2022-12-25T14:37:55.731Z,119.33
2022-12-25T14:40:28.826Z,143.47
2022-12-25T14:42:57.874Z,131.57
2022-12-25T14:45:28.177Z,138.73
2022-12-25T14:47:59.183Z,185.30
2022-12-25T14:50:28.157Z,179.07
2022-12-25T14:52:56.114Z,151.37
2022-12-25T14:55:25.930Z,211.13
2022-12-25T14:57:55.681Z,182.10
2022-12-25T15:00:42.928Z,117.10
2022-12-25T15:03:30.275Z,156.33
2022-12-25T15:05:59.339Z,181.67
2022-12-25T15:08:26.904Z,97.90
2022-12-25T15:11:01.245Z,158.03
2022-12-25T15:13:29.903Z,108.97
2022-12-25T15:15:59.327Z,130.30
2022-12-25T15:18:29.146Z,92.80
2022-12-25T15:20:57.115Z,130.10
2022-12-25T15:23:25.641Z,97.60
2022-12-25T15:25:53.149Z,103.30
2022-12-25T15:28:20.659Z,92.37
2022-12-25T15:30:49.950Z,123.37
2022-12-25T15:33:18.635Z,102.30
2022-12-25T15:35:46.659Z,121.00
2022-12-25T15:38:14.451Z,110.83
2022-12-25T15:40:42.346Z,123.60
2022-12-25T15:43:38.761Z,139.73
2022-12-25T15:46:01.032Z,107.13
2022-12-25T15:48:28.548Z,148.47
2022-12-25T15:50:56.012Z,218.70
2022-12-25T15:53:24.225Z,212.77
2022-12-25T15:55:54.643Z,129.90
2022-12-25T15:58:22.015Z,94.90
2022-12-25T16:00:50.501Z,111.10
2022-12-25T16:03:17.970Z,141.60
2022-12-25T16:05:45.524Z,143.83
2022-12-25T16:08:12.877Z,130.53
2022-12-25T16:10:40.529Z,93.53
2022-12-25T16:13:43.761Z,116.77
2022-12-25T16:16:11.303Z,164.67
2022-12-25T16:18:46.736Z,129.30
2022-12-25T16:21:15.882Z,215.63
2022-12-25T16:23:43.459Z,111.93
2022-12-25T16:26:11.011Z,121.90
2022-12-25T16:28:38.634Z,93.27
2022-12-25T16:31:06.260Z,124.50
2022-12-25T16:33:33.735Z,143.27
2022-12-25T16:36:01.096Z,151.50
2022-12-25T16:38:28.528Z,123.10
2022-12-25T16:40:57.004Z,169.73
2022-12-25T16:43:28.063Z,201.23
2022-12-25T16:45:57.457Z,278.13
2022-12-25T16:48:53.536Z,244.70
2022-12-25T16:51:21.757Z,209.32
2022-12-25T16:53:49.195Z,198.90
2022-12-25T16:56:17.886Z,246.70
2022-12-25T16:58:47.108Z,212.73
2022-12-25T17:01:19.383Z,218.67
2022-12-25T17:03:50.216Z,201.50
2022-12-25T17:06:23.177Z,157.57
2022-12-25T17:08:52.106Z,180.23
2022-12-25T17:16:55.787Z,146.67
2022-12-25T17:19:43.272Z,172.90
2022-12-25T17:22:12.489Z,167.70
2022-12-25T17:24:42.191Z,148.20
2022-12-25T17:27:09.722Z,141.07
2022-12-25T17:29:40.084Z,115.43
2022-12-25T17:32:11.191Z,123.87
2022-12-25T17:34:39.047Z,113.03
2022-12-25T17:37:08.470Z,140.07
2022-12-25T17:39:35.881Z,116.73
2022-12-25T17:42:05.643Z,119.93
2022-12-25T17:44:33.095Z,114.80
2022-12-25T17:47:00.868Z,159.47
2022-12-25T17:49:43.697Z,142.67
2022-12-25T17:52:11.204Z,113.83
2022-12-25T17:54:40.656Z,113.37
2022-12-25T17:57:08.075Z,122.00
2022-12-25T17:59:35.615Z,137.07
2022-12-25T18:02:03.172Z,148.77
2022-12-25T18:04:30.598Z,126.57
2022-12-25T18:06:58.208Z,161.93
2022-12-25T18:09:25.613Z,133.60
2022-12-25T18:11:53.188Z,154.47
2022-12-25T18:14:20.534Z,167.63
2022-12-25T18:16:48.401Z,176.07
2022-12-25T18:19:16.223Z,146.77
2022-12-25T18:21:43.828Z,164.37
2022-12-25T18:24:11.370Z,128.63
2022-12-25T18:26:39.086Z,159.37
2022-12-25T18:29:07.311Z,147.50
2022-12-25T18:31:34.972Z,143.67
2022-12-25T18:34:02.643Z,145.67
2022-12-25T18:36:30.612Z,196.53
2022-12-25T18:38:58.296Z,151.53
2022-12-25T18:41:25.874Z,208.43
2022-12-25T18:43:55.795Z,146.23
2022-12-25T18:46:26.233Z,147.30
2022-12-25T18:48:55.065Z,175.13
2022-12-25T18:51:22.728Z,150.93
2022-12-25T18:53:52.681Z,145.70
2022-12-25T18:56:20.151Z,167.17
2022-12-25T18:58:48.132Z,149.23
2022-12-25T19:01:18.238Z,134.47
2022-12-25T19:03:46.753Z,191.47
2022-12-25T19:06:18.645Z,155.00
2022-12-25T19:08:46.240Z,146.93
2022-12-25T19:11:14.066Z,142.37
2022-12-25T19:13:41.564Z,136.23
2022-12-25T19:16:09.330Z,156.37
2022-12-25T19:18:36.771Z,126.30
2022-12-25T19:21:05.153Z,118.90
2022-12-25T19:23:33.192Z,105.10
2022-12-25T19:26:00.931Z,129.50
2022-12-25T19:28:28.432Z,117.67
2022-12-25T19:30:56.232Z,90.17
2022-12-25T19:33:25.898Z,103.57
2022-12-25T19:35:53.391Z,101.40
2022-12-25T19:38:20.770Z,79.57
2022-12-25T19:41:05.516Z,86.93
2022-12-25T19:43:34.456Z,91.70
2022-12-25T19:46:02.425Z,76.80
2022-12-25T19:48:32.727Z,85.30
2022-12-25T19:51:00.461Z,86.67
2022-12-25T19:53:28.166Z,95.50
2022-12-25T19:55:55.875Z,81.53
2022-12-25T19:58:24.314Z,98.83
2022-12-25T20:00:59.664Z,101.03
2022-12-25T20:05:54.798Z,104.80
2022-12-25T20:08:22.387Z,108.03
2022-12-25T20:10:50.645Z,106.33
2022-12-25T20:13:18.549Z,126.30
2022-12-25T20:15:46.142Z,129.37
2022-12-25T20:18:13.633Z,144.03
2022-12-25T20:20:41.246Z,148.70
2022-12-25T20:23:08.609Z,141.90
2022-12-25T20:25:40.000Z,137.87
2022-12-25T20:28:07.759Z,152.43
2022-12-25T20:30:37.854Z,148.10
2022-12-25T20:33:05.449Z,155.10
2022-12-25T20:35:47.483Z,189.93
2022-12-25T20:38:14.997Z,117.73
2022-12-25T20:41:24.373Z,165.40
2022-12-25T20:43:30.127Z,153.13
2022-12-25T20:45:57.554Z,168.53
2022-12-25T20:48:25.139Z,134.23
2022-12-25T20:51:05.959Z,121.53
2022-12-25T20:53:33.490Z,140.40
2022-12-25T20:56:03.338Z,124.23
2022-12-25T20:58:31.419Z,118.83
2022-12-25T21:01:32.208Z,132.07
2022-12-25T21:04:00.201Z,145.07
2022-12-25T21:07:07.429Z,140.87
2022-12-25T21:09:35.414Z,146.07
2022-12-25T21:12:03.389Z,161.80
2022-12-25T21:14:30.826Z,168.20
2022-12-25T21:16:58.462Z,170.50
2022-12-25T21:19:25.932Z,158.00
2022-12-25T21:21:53.459Z,192.23
2022-12-25T21:24:21.093Z,171.80
2022-12-25T21:26:48.811Z,190.30
2022-12-25T21:29:16.773Z,198.17
2022-12-25T21:32:04.020Z,228.77
2022-12-25T21:34:31.473Z,214.77
2022-12-25T21:36:58.951Z,152.67
2022-12-25T21:39:26.413Z,192.27
2022-12-25T21:41:53.879Z,264.63
2022-12-25T21:44:21.362Z,185.57
2022-12-25T21:46:48.910Z,216.73
2022-12-25T21:49:36.298Z,241.20
2022-12-25T21:52:11.044Z,195.03
2022-12-25T21:55:00.119Z,185.57
2022-12-25T21:57:27.503Z,209.73
2022-12-25T21:59:54.971Z,202.40
2022-12-25T22:02:22.503Z,158.07
2022-12-25T22:04:50.179Z,165.70
2022-12-25T22:07:17.625Z,156.83
2022-12-25T22:09:46.770Z,213.37
2022-12-25T22:12:34.721Z,140.43
2022-12-25T22:15:06.274Z,196.97
2022-12-25T22:17:55.030Z,181.43
2022-12-25T22:20:24.471Z,173.47
2022-12-25T22:22:52.183Z,203.60
2022-12-25T22:25:20.401Z,175.97
2022-12-25T22:27:48.404Z,157.90
2022-12-25T22:30:17.695Z,167.13
2022-12-25T22:32:46.474Z,170.53
2022-12-25T22:35:14.349Z,181.20
2022-12-25T22:37:42.343Z,132.27
2022-12-25T22:40:11.049Z,161.53
2022-12-25T22:42:38.535Z,233.50
2022-12-25T22:45:06.267Z,174.07
2022-12-25T22:47:33.766Z,204.67
2022-12-25T22:50:01.320Z,191.60
2022-12-25T22:52:32.957Z,183.17
2022-12-25T22:55:00.504Z,197.70
2022-12-25T22:57:28.426Z,121.83
2022-12-25T22:59:57.284Z,179.13
2022-12-25T23:02:27.687Z,189.43
2022-12-25T23:04:55.724Z,145.63
2022-12-25T23:07:23.806Z,214.63
2022-12-25T23:09:51.804Z,229.83
2022-12-25T23:12:39.387Z,167.83
2022-12-25T23:15:07.773Z,167.70
2022-12-25T23:17:55.199Z,125.27
2022-12-25T23:20:42.863Z,190.23
2022-12-25T23:23:36.592Z,153.40
2022-12-25T23:26:08.108Z,159.80
2022-12-25T23:28:57.178Z,201.07
2022-12-25T23:31:28.139Z,212.07
2022-12-25T23:33:55.991Z,259.53
2022-12-25T23:36:23.941Z,239.10
2022-12-25T23:38:51.747Z,343.27
2022-12-25T23:41:48.198Z,223.97
2022-12-25T23:44:15.810Z,232.50
2022-12-25T23:46:52.518Z,234.77
2022-12-25T23:49:21.992Z,244.00
2022-12-25T23:51:50.202Z,276.20
2022-12-25T23:54:18.950Z,249.10
2022-12-25T23:56:47.078Z,246.40
2022-12-25T23:59:15.679Z,230.70
